createdAt,value
2018-09-22T17:50:40.533Z,1015.62
2018-09-22T17:51:40.511Z,1015.60
2018-09-22T17:52:40.502Z,1015.58
2018-09-22T17:53:40.499Z,1015.54
2018-09-22T17:54:40.492Z,1015.44
2018-09-22T17:55:40.468Z,1015.48
2018-09-22T17:56:40.463Z,1015.54
2018-09-22T17:57:40.445Z,1015.49
2018-09-22T17:58:40.446Z,1015.55
2018-09-22T17:59:40.479Z,1015.54
2018-09-22T18:00:40.445Z,1015.52
2018-09-22T18:01:40.400Z,1015.43
2018-09-22T18:02:40.426Z,1015.49
2018-09-22T18:03:40.388Z,1015.52
2018-09-22T18:04:40.415Z,1015.47
2018-09-22T18:05:40.355Z,1015.43
2018-09-22T18:06:40.357Z,1015.44
2018-09-22T18:07:40.363Z,1015.40
2018-09-22T18:08:40.325Z,1015.45
2018-09-22T18:09:40.358Z,1015.49
2018-09-22T18:10:40.300Z,1015.46
2018-09-22T18:11:40.314Z,1015.54
2018-09-22T18:12:40.284Z,1015.56
2018-09-22T18:13:40.267Z,1015.56
2018-09-22T18:14:40.262Z,1015.61
2018-09-22T18:15:40.262Z,1015.59
2018-09-22T18:16:40.294Z,1015.60
2018-09-22T18:17:40.228Z,1015.53
2018-09-22T18:18:40.272Z,1015.44
2018-09-22T18:19:40.209Z,1015.49
2018-09-22T18:20:40.226Z,1015.55
2018-09-22T18:21:40.232Z,1015.63
2018-09-22T18:22:40.189Z,1015.75
2018-09-22T18:23:40.181Z,1015.64
2018-09-22T18:24:40.148Z,1015.61
2018-09-22T18:25:40.160Z,1015.65
2018-09-22T18:26:40.157Z,1015.70
2018-09-22T18:27:40.113Z,1015.62
2018-09-22T18:28:40.312Z,1015.62
2018-09-22T18:29:40.109Z,1015.69
2018-09-22T18:30:40.094Z,1015.71
2018-09-22T18:31:40.089Z,1015.75
2018-09-22T18:32:40.057Z,1015.76
2018-09-22T18:33:40.048Z,1015.79
2018-09-22T18:34:40.059Z,1015.70
2018-09-22T18:35:40.066Z,1015.66
2018-09-22T18:36:40.019Z,1015.57
2018-09-22T18:37:40.045Z,1015.56
2018-09-22T18:38:40.045Z,1015.60
2018-09-22T18:39:39.987Z,1015.60
2018-09-22T18:40:39.975Z,1015.58
2018-09-22T18:41:39.985Z,1015.60
2018-09-22T18:42:39.970Z,1015.67
2018-09-22T18:43:39.965Z,1015.67
2018-09-22T18:44:39.927Z,1015.62
2018-09-22T18:45:39.970Z,1015.63
2018-09-22T18:46:39.936Z,1015.60
2018-09-22T18:47:39.947Z,1015.63
2018-09-22T18:48:39.918Z,1015.58
2018-09-22T18:49:39.882Z,1015.63
2018-09-22T18:50:39.862Z,1015.67
2018-09-22T18:51:39.883Z,1015.75
2018-09-22T18:52:39.858Z,1015.73
2018-09-22T18:53:39.835Z,1015.68
2018-09-22T18:54:40.716Z,1015.70
2018-09-22T18:55:40.065Z,1015.62
2018-09-22T18:56:39.795Z,1015.66
2018-09-22T18:57:39.798Z,1015.62
2018-09-22T18:58:39.848Z,1015.71
2018-09-22T18:59:39.768Z,1015.73
2018-09-22T19:00:39.749Z,1015.70
2018-09-22T19:01:39.741Z,1015.73
2018-09-22T19:02:39.748Z,1015.69
2018-09-22T19:03:39.784Z,1015.69
2018-09-22T19:04:39.720Z,1015.71
2018-09-22T19:05:39.724Z,1015.77
2018-09-22T19:06:39.707Z,1015.73
2018-09-22T19:07:39.720Z,1015.77
2018-09-22T19:08:39.665Z,1015.72
2018-09-22T19:09:39.653Z,1015.67
2018-09-22T19:10:39.670Z,1015.70
2018-09-22T19:11:39.638Z,1015.68
2018-09-22T19:12:39.646Z,1015.64
2018-09-22T19:13:39.657Z,1015.63
2018-09-22T19:14:39.639Z,1015.61
2018-09-22T19:15:39.587Z,1015.52
2018-09-22T19:16:39.609Z,1015.48
2018-09-22T19:17:39.600Z,1015.37
2018-09-22T19:18:39.560Z,1015.45
2018-09-22T19:19:39.560Z,1015.50
2018-09-22T19:20:39.536Z,1015.51
2018-09-22T19:21:39.570Z,1015.48
2018-09-22T19:22:39.517Z,1015.44
2018-09-22T19:23:39.994Z,1015.46
2018-09-22T19:24:39.490Z,1015.38
2018-09-22T19:25:39.493Z,1015.48
2018-09-22T19:26:39.475Z,1015.39
2018-09-22T19:27:39.460Z,1015.46
2018-09-22T19:28:39.463Z,1015.43
2018-09-22T19:29:39.497Z,1015.45
2018-09-22T19:30:39.428Z,1015.49
2018-09-22T19:31:39.441Z,1015.54
2018-09-22T19:32:39.430Z,1015.39
2018-09-22T19:33:39.404Z,1015.45
2018-09-22T19:34:39.415Z,1015.49
2018-09-22T19:35:39.370Z,1015.56
2018-09-22T19:36:39.353Z,1015.63
2018-09-22T19:37:39.362Z,1015.63
2018-09-22T19:38:39.428Z,1015.63
2018-09-22T19:39:39.353Z,1015.64
2018-09-22T19:40:39.316Z,1015.63
2018-09-22T19:41:39.307Z,1015.63
2018-09-22T19:42:39.297Z,1015.60
2018-09-22T19:43:39.294Z,1015.61
2018-09-22T19:44:39.268Z,1015.56
2018-09-22T19:45:39.270Z,1015.53
2018-09-22T19:46:39.266Z,1015.46
2018-09-22T19:47:39.232Z,1015.45
2018-09-22T19:48:39.239Z,1015.44
2018-09-22T19:49:39.240Z,1015.39
2018-09-22T19:50:39.212Z,1015.40
2018-09-22T19:51:39.216Z,1015.38
2018-09-22T19:52:39.192Z,1015.44
2018-09-22T19:53:39.191Z,1015.49
2018-09-22T19:54:39.214Z,1015.50
2018-09-22T19:55:39.188Z,1015.52
2018-09-22T19:56:39.198Z,1015.50
2018-09-22T19:57:39.171Z,1015.45
2018-09-22T19:58:39.133Z,1015.46
2018-09-22T19:59:39.176Z,1015.46
2018-09-22T20:00:39.352Z,1015.40
2018-09-22T20:01:39.098Z,1015.37
2018-09-22T20:02:39.251Z,1015.33
2018-09-22T20:03:39.082Z,1015.33
2018-09-22T20:04:39.053Z,1015.34
2018-09-22T20:05:39.064Z,1015.39
2018-09-22T20:06:39.031Z,1015.45
2018-09-22T20:07:39.020Z,1015.48
2018-09-22T20:08:39.006Z,1015.38
2018-09-22T20:09:39.106Z,1015.39
2018-09-22T20:10:38.984Z,1015.46
2018-09-22T20:11:38.999Z,1015.45
2018-09-22T20:12:39.028Z,1015.43
2018-09-22T20:13:38.988Z,1015.46
2018-09-22T20:14:38.975Z,1015.42
2018-09-22T20:15:38.999Z,1015.36
2018-09-22T20:16:39.036Z,1015.44
2018-09-22T20:17:39.062Z,1015.39
2018-09-22T20:18:39.751Z,1015.39
2018-09-22T20:19:38.931Z,1015.44
2018-09-22T20:20:38.872Z,1015.48
2018-09-22T20:21:38.895Z,1015.56
2018-09-22T20:22:39.111Z,1015.55
2018-09-22T20:23:38.977Z,1015.57
2018-09-22T20:24:38.857Z,1015.40
2018-09-22T20:25:38.818Z,1015.43
2018-09-22T20:26:38.809Z,1015.39
2018-09-22T20:27:38.798Z,1015.39
2018-09-22T20:28:38.783Z,1015.36
2018-09-22T20:29:38.774Z,1015.33
2018-09-22T20:30:38.784Z,1015.34
2018-09-22T20:31:38.855Z,1015.34
2018-09-22T20:32:38.758Z,1015.34
2018-09-22T20:33:38.731Z,1015.37
2018-09-22T20:34:38.723Z,1015.34
2018-09-22T20:35:38.720Z,1015.28
2018-09-22T20:36:38.722Z,1015.26
2018-09-22T20:37:38.718Z,1015.24
2018-09-22T20:38:38.795Z,1015.23
2018-09-22T20:39:38.677Z,1015.17
2018-09-22T20:40:38.678Z,1015.12
2018-09-22T20:41:38.731Z,1015.14
2018-09-22T20:42:38.638Z,1015.19
2018-09-22T20:43:38.632Z,1015.21
2018-09-22T20:44:38.635Z,1015.19
2018-09-22T20:45:38.645Z,1015.15
2018-09-22T20:46:38.586Z,1015.14
2018-09-22T20:47:38.727Z,1015.21
2018-09-22T20:48:38.586Z,1015.18
2018-09-22T20:49:38.581Z,1015.13
2018-09-22T20:50:38.672Z,1015.09
2018-09-22T20:51:38.547Z,1015.13
2018-09-22T20:52:38.650Z,1015.10
2018-09-22T20:53:38.563Z,1015.07
2018-09-22T20:54:38.537Z,1015.01
2018-09-22T20:55:38.494Z,1014.99
2018-09-22T20:56:38.493Z,1015.05
2018-09-22T20:57:38.466Z,1015.03
2018-09-22T20:58:38.461Z,1015.02
2018-09-22T20:59:38.468Z,1015.05
2018-09-22T21:00:38.449Z,1015.07
2018-09-22T21:01:38.457Z,1015.03
2018-09-22T21:02:38.417Z,1014.97
2018-09-22T21:03:38.400Z,1014.95
2018-09-22T21:04:38.394Z,1014.94
2018-09-22T21:05:38.384Z,1014.89
2018-09-22T21:06:38.387Z,1014.91
2018-09-22T21:07:38.357Z,1014.87
2018-09-22T21:08:38.352Z,1014.93
2018-09-22T21:09:38.342Z,1014.93
2018-09-22T21:10:38.369Z,1014.90
2018-09-22T21:11:38.359Z,1014.90
2018-09-22T21:12:38.313Z,1014.88
2018-09-22T21:13:38.307Z,1014.86
2018-09-22T21:14:38.312Z,1014.82
2018-09-22T21:15:38.278Z,1014.85
2018-09-22T21:16:38.281Z,1014.85
2018-09-22T21:17:38.250Z,1014.80
2018-09-22T21:18:38.287Z,1014.79
2018-09-22T21:19:38.262Z,1014.83
2018-09-22T21:20:38.215Z,1014.82
2018-09-22T21:21:38.207Z,1014.78
2018-09-22T21:22:38.208Z,1014.78
2018-09-22T21:23:38.185Z,1014.78
2018-09-22T21:24:38.184Z,1014.76
2018-09-22T21:25:38.161Z,1014.75
2018-09-22T21:26:38.148Z,1014.73
